DAL2602 KLGA-KBOS
Flight info
| Callsign | DAL2602 |
|---|---|
| Flight time | 0h 39m |
| Altitude | 21000 |
| Route | MERIT ROBUC3 |
| Aircraft | A321/M-SDE3FGHIRWY/LB1 |
Departure
| Time | 2026-05-03 21:45 |
|---|---|
| Airport | LaGuardia Airport (KLGA) |
Arrival
| Time | 2026-05-03 22:25 |
|---|---|
| Airport | Boston Logan International Airport (KBOS) |
| Time | Latitude | Longitude | Altitude | Speed | Heading |
|---|---|---|---|---|---|
| 2026-05-03 21:03 | 40.77170 | -73.86335 | 29 ft | 0 kts | 136° |
| 2026-05-03 21:33 | 40.77174 | -73.86339 | 20 ft | 3 kts | 134° |
| 2026-05-03 21:33 | 40.77187 | -73.86367 | 20 ft | 4 kts | 97° |
| 2026-05-03 21:33 | 40.77184 | -73.86399 | 23 ft | 4 kts | 54° |
| 2026-05-03 21:33 | 40.77175 | -73.86413 | 22 ft | 1 kts | 42° |
| 2026-05-03 21:34 | 40.77174 | -73.86414 | 22 ft | 0 kts | 42° |
| 2026-05-03 21:35 | 40.77189 | -73.86406 | 22 ft | 4 kts | 13° |
| 2026-05-03 21:36 | 40.77225 | -73.86403 | 20 ft | 5 kts | 6° |
| 2026-05-03 21:36 | 40.77249 | -73.86399 | 19 ft | 2 kts | 7° |
| 2026-05-03 21:36 | 40.77251 | -73.86399 | 19 ft | 0 kts | 7° |
| 2026-05-03 21:40 | 40.77268 | -73.86396 | 21 ft | 8 kts | 7° |
| 2026-05-03 21:40 | 40.77346 | -73.86402 | 13 ft | 15 kts | 326° |
| 2026-05-03 21:41 | 40.77405 | -73.86518 | 12 ft | 15 kts | 302° |
| 2026-05-03 21:41 | 40.77458 | -73.86633 | 12 ft | 15 kts | 301° |
| 2026-05-03 21:41 | 40.77537 | -73.86782 | 13 ft | 26 kts | 310° |
| 2026-05-03 21:41 | 40.77646 | -73.87001 | 14 ft | 30 kts | 302° |
| 2026-05-03 21:42 | 40.77749 | -73.87214 | 17 ft | 24 kts | 301° |
| 2026-05-03 21:42 | 40.77761 | -73.87409 | 16 ft | 21 kts | 253° |
| 2026-05-03 21:42 | 40.77685 | -73.87535 | 20 ft | 13 kts | 216° |
| 2026-05-03 21:42 | 40.77613 | -73.87618 | 20 ft | 17 kts | 241° |
| 2026-05-03 21:43 | 40.77547 | -73.87742 | 21 ft | 17 kts | 213° |
| 2026-05-03 21:43 | 40.77443 | -73.87826 | 21 ft | 21 kts | 212° |
| 2026-05-03 21:43 | 40.77329 | -73.87924 | 20 ft | 19 kts | 213° |
| 2026-05-03 21:43 | 40.77222 | -73.88014 | 20 ft | 18 kts | 212° |
| 2026-05-03 21:44 | 40.77108 | -73.88104 | 22 ft | 22 kts | 211° |
| 2026-05-03 21:44 | 40.76991 | -73.88222 | 30 ft | 20 kts | 221° |
| 2026-05-03 21:44 | 40.76924 | -73.88346 | 30 ft | 13 kts | 262° |
| 2026-05-03 21:44 | 40.76962 | -73.88374 | 30 ft | 0 kts | 37° |
| 2026-05-03 21:45 | 40.76963 | -73.88374 | 30 ft | 3 kts | 37° |
| 2026-05-03 21:45 | 40.77254 | -73.88141 | 24 ft | 97 kts | 32° |
| 2026-05-03 21:45 | 40.78075 | -73.87557 | 107 ft | 163 kts | 25° |
| 2026-05-03 21:45 | 40.79001 | -73.86577 | 767 ft | 180 kts | 31° |
| 2026-05-03 21:46 | 40.80048 | -73.85494 | 1441 ft | 199 kts | 29° |
| 2026-05-03 21:46 | 40.81226 | -73.84381 | 2212 ft | 218 kts | 27° |
| 2026-05-03 21:46 | 40.82560 | -73.83194 | 2967 ft | 244 kts | 27° |
| 2026-05-03 21:46 | 40.83992 | -73.81950 | 3730 ft | 253 kts | 27° |
| 2026-05-03 21:47 | 40.85488 | -73.80649 | 4498 ft | 261 kts | 27° |
| 2026-05-03 21:47 | 40.87035 | -73.79319 | 5264 ft | 269 kts | 27° |
| 2026-05-03 21:47 | 40.88622 | -73.77951 | 6034 ft | 276 kts | 27° |
| 2026-05-03 21:47 | 40.90209 | -73.76561 | 7045 ft | 272 kts | 27° |
| 2026-05-03 21:48 | 40.91779 | -73.75170 | 7937 ft | 273 kts | 27° |
| 2026-05-03 21:48 | 40.93323 | -73.73679 | 8760 ft | 280 kts | 37° |
| 2026-05-03 21:48 | 40.94729 | -73.71865 | 9593 ft | 284 kts | 38° |
| 2026-05-03 21:48 | 40.96146 | -73.70006 | 10235 ft | 293 kts | 38° |
| 2026-05-03 21:49 | 40.97651 | -73.68031 | 10443 ft | 316 kts | 39° |
| 2026-05-03 21:49 | 40.99270 | -73.65901 | 10608 ft | 340 kts | 39° |
| 2026-05-03 21:49 | 41.00990 | -73.63626 | 10858 ft | 358 kts | 40° |
| 2026-05-03 21:49 | 41.02741 | -73.61288 | 11436 ft | 365 kts | 40° |
| 2026-05-03 21:50 | 41.04542 | -73.58877 | 12088 ft | 371 kts | 40° |
| 2026-05-03 21:50 | 41.06365 | -73.56435 | 12772 ft | 375 kts | 40° |
| 2026-05-03 21:50 | 41.08213 | -73.53963 | 13441 ft | 379 kts | 40° |
| 2026-05-03 21:50 | 41.10083 | -73.51462 | 14047 ft | 384 kts | 39° |
| 2026-05-03 21:51 | 41.11975 | -73.48940 | 14632 ft | 387 kts | 39° |
| 2026-05-03 21:51 | 41.13886 | -73.46402 | 15227 ft | 391 kts | 39° |
| 2026-05-03 21:51 | 41.15810 | -73.43839 | 15736 ft | 393 kts | 39° |
| 2026-05-03 21:51 | 41.17734 | -73.41254 | 15904 ft | 394 kts | 39° |
| 2026-05-03 21:52 | 41.19673 | -73.38652 | 16470 ft | 397 kts | 39° |
| 2026-05-03 21:52 | 41.21628 | -73.36034 | 17072 ft | 400 kts | 39° |
| 2026-05-03 21:52 | 41.23596 | -73.33399 | 17661 ft | 403 kts | 39° |
| 2026-05-03 21:52 | 41.25549 | -73.30786 | 18205 ft | 406 kts | 39° |
| 2026-05-03 21:53 | 41.27550 | -73.28108 | 18675 ft | 410 kts | 39° |
| 2026-05-03 21:53 | 41.29566 | -73.25402 | 19150 ft | 413 kts | 39° |
| 2026-05-03 21:53 | 41.31589 | -73.22674 | 19635 ft | 416 kts | 39° |
| 2026-05-03 21:53 | 41.33632 | -73.19917 | 20109 ft | 419 kts | 39° |
| 2026-05-03 21:54 | 41.35570 | -73.16975 | 20569 ft | 428 kts | 48° |
| 2026-05-03 21:54 | 41.37181 | -73.13574 | 20868 ft | 443 kts | 57° |
| 2026-05-03 21:54 | 41.38401 | -73.09715 | 20921 ft | 463 kts | 68° |
| 2026-05-03 21:54 | 41.39128 | -73.05447 | 20909 ft | 481 kts | 77° |
| 2026-05-03 21:55 | 41.39620 | -73.00990 | 20908 ft | 492 kts | 78° |
| 2026-05-03 21:55 | 41.40095 | -72.96528 | 20896 ft | 477 kts | 78° |
| 2026-05-03 21:55 | 41.40543 | -72.92196 | 20904 ft | 468 kts | 78° |
| 2026-05-03 21:55 | 41.40987 | -72.87919 | 20900 ft | 466 kts | 78° |
| 2026-05-03 21:56 | 41.41435 | -72.83649 | 20901 ft | 465 kts | 78° |
| 2026-05-03 21:56 | 41.41885 | -72.79378 | 20898 ft | 465 kts | 78° |
| 2026-05-03 21:56 | 41.42335 | -72.75111 | 20899 ft | 465 kts | 78° |
| 2026-05-03 21:56 | 41.42787 | -72.70840 | 20898 ft | 465 kts | 78° |
| 2026-05-03 21:57 | 41.43242 | -72.66578 | 20895 ft | 465 kts | 78° |
| 2026-05-03 21:57 | 41.43692 | -72.62309 | 20897 ft | 465 kts | 78° |
| 2026-05-03 21:57 | 41.44139 | -72.58038 | 20905 ft | 465 kts | 78° |
| 2026-05-03 21:57 | 41.44583 | -72.53768 | 20898 ft | 465 kts | 78° |
| 2026-05-03 21:58 | 41.45024 | -72.49492 | 20894 ft | 466 kts | 78° |
| 2026-05-03 21:58 | 41.45462 | -72.45218 | 20892 ft | 466 kts | 78° |
| 2026-05-03 21:58 | 41.45900 | -72.40936 | 20891 ft | 466 kts | 79° |
| 2026-05-03 21:58 | 41.46335 | -72.36656 | 20890 ft | 466 kts | 79° |
| 2026-05-03 21:59 | 41.46763 | -72.32430 | 20887 ft | 466 kts | 78° |
| 2026-05-03 21:59 | 41.47199 | -72.28146 | 20884 ft | 466 kts | 78° |
| 2026-05-03 21:59 | 41.47670 | -72.23879 | 20894 ft | 464 kts | 75° |
| 2026-05-03 21:59 | 41.48512 | -72.19750 | 20884 ft | 459 kts | 66° |
| 2026-05-03 22:00 | 41.49785 | -72.15873 | 20883 ft | 455 kts | 58° |
| 2026-05-03 22:00 | 41.51192 | -72.12094 | 20880 ft | 455 kts | 59° |
| 2026-05-03 22:00 | 41.52590 | -72.08305 | 20875 ft | 455 kts | 59° |
| 2026-05-03 22:00 | 41.53979 | -72.04507 | 20875 ft | 456 kts | 59° |
| 2026-05-03 22:01 | 41.55364 | -72.00699 | 20877 ft | 456 kts | 59° |
| 2026-05-03 22:01 | 41.56687 | -71.96849 | 20873 ft | 457 kts | 62° |
| 2026-05-03 22:01 | 41.57909 | -71.92920 | 20885 ft | 458 kts | 64° |
| 2026-05-03 22:01 | 41.59061 | -71.88946 | 20898 ft | 459 kts | 65° |
| 2026-05-03 22:02 | 41.60185 | -71.84963 | 20894 ft | 459 kts | 65° |
| 2026-05-03 22:02 | 41.61306 | -71.80982 | 20762 ft | 452 kts | 65° |
| 2026-05-03 22:02 | 41.62398 | -71.77125 | 20499 ft | 437 kts | 64° |
| 2026-05-03 22:02 | 41.63475 | -71.73397 | 20237 ft | 423 kts | 64° |
| 2026-05-03 22:03 | 41.64541 | -71.69779 | 19856 ft | 414 kts | 63° |
| 2026-05-03 22:03 | 41.65600 | -71.66215 | 19323 ft | 410 kts | 63° |
| 2026-05-03 22:03 | 41.66641 | -71.62699 | 19000 ft | 400 kts | 63° |
| 2026-05-03 22:03 | 41.67642 | -71.59297 | 18882 ft | 387 kts | 63° |
| 2026-05-03 22:04 | 41.68608 | -71.56003 | 18768 ft | 374 kts | 63° |
| 2026-05-03 22:04 | 41.69543 | -71.52811 | 18518 ft | 366 kts | 63° |
| 2026-05-03 22:04 | 41.70468 | -71.49665 | 18149 ft | 362 kts | 63° |
| 2026-05-03 22:04 | 41.71387 | -71.46538 | 17700 ft | 359 kts | 63° |
| 2026-05-03 22:05 | 41.72311 | -71.43451 | 17263 ft | 354 kts | 59° |
| 2026-05-03 22:05 | 41.73467 | -71.40591 | 16819 ft | 348 kts | 54° |
| 2026-05-03 22:05 | 41.74669 | -71.37787 | 16386 ft | 346 kts | 54° |
| 2026-05-03 22:05 | 41.75863 | -71.35005 | 15968 ft | 344 kts | 54° |
| 2026-05-03 22:06 | 41.77051 | -71.32237 | 15553 ft | 341 kts | 54° |
| 2026-05-03 22:06 | 41.78210 | -71.29524 | 15155 ft | 339 kts | 54° |
| 2026-05-03 22:06 | 41.79379 | -71.26784 | 14755 ft | 337 kts | 54° |
| 2026-05-03 22:06 | 41.80556 | -71.24029 | 14351 ft | 335 kts | 54° |
| 2026-05-03 22:07 | 41.81696 | -71.21352 | 14176 ft | 326 kts | 54° |
| 2026-05-03 22:07 | 41.82806 | -71.18730 | 13873 ft | 322 kts | 54° |
| 2026-05-03 22:07 | 41.83909 | -71.16130 | 13516 ft | 320 kts | 54° |
| 2026-05-03 22:07 | 41.85005 | -71.13547 | 13125 ft | 317 kts | 54° |
| 2026-05-03 22:08 | 41.86081 | -71.11020 | 12759 ft | 315 kts | 54° |
| 2026-05-03 22:08 | 41.87190 | -71.08450 | 12370 ft | 313 kts | 53° |
| 2026-05-03 22:08 | 41.88266 | -71.05970 | 12006 ft | 311 kts | 54° |
| 2026-05-03 22:08 | 41.89363 | -71.03437 | 11622 ft | 309 kts | 54° |
| 2026-05-03 22:09 | 41.90431 | -71.00964 | 11380 ft | 303 kts | 54° |
| 2026-05-03 22:09 | 41.91472 | -70.98551 | 11256 ft | 302 kts | 54° |
| 2026-05-03 22:09 | 41.92540 | -70.96080 | 11116 ft | 301 kts | 54° |
| 2026-05-03 22:10 | 41.94636 | -70.91220 | 10845 ft | 300 kts | 54° |
| 2026-05-03 22:10 | 41.95677 | -70.88798 | 10709 ft | 299 kts | 54° |
| 2026-05-03 22:10 | 41.96715 | -70.86383 | 10556 ft | 298 kts | 55° |
| 2026-05-03 22:10 | 41.97733 | -70.84004 | 10429 ft | 297 kts | 55° |
| 2026-05-03 22:11 | 41.98775 | -70.81569 | 10283 ft | 296 kts | 55° |
| 2026-05-03 22:11 | 41.99802 | -70.79172 | 10154 ft | 295 kts | 55° |
| 2026-05-03 22:11 | 42.00823 | -70.76828 | 10022 ft | 293 kts | 51° |
| 2026-05-03 22:11 | 42.02089 | -70.74716 | 9789 ft | 288 kts | 43° |
| 2026-05-03 22:12 | 42.03425 | -70.72722 | 9484 ft | 286 kts | 43° |
| 2026-05-03 22:12 | 42.04752 | -70.70736 | 9199 ft | 285 kts | 43° |
| 2026-05-03 22:12 | 42.06076 | -70.68758 | 8940 ft | 284 kts | 43° |
| 2026-05-03 22:12 | 42.07396 | -70.66786 | 8671 ft | 283 kts | 42° |
| 2026-05-03 22:13 | 42.08710 | -70.64824 | 8407 ft | 282 kts | 42° |
| 2026-05-03 22:13 | 42.10091 | -70.62982 | 8136 ft | 276 kts | 31° |
| 2026-05-03 22:13 | 42.11721 | -70.61708 | 7869 ft | 268 kts | 16° |
| 2026-05-03 22:13 | 42.13483 | -70.61059 | 7581 ft | 260 kts | 4° |
| 2026-05-03 22:14 | 42.15269 | -70.60692 | 7302 ft | 259 kts | 4° |
| 2026-05-03 22:14 | 42.17053 | -70.60317 | 7028 ft | 259 kts | 4° |
| 2026-05-03 22:14 | 42.18830 | -70.59936 | 6739 ft | 258 kts | 4° |
| 2026-05-03 22:14 | 42.20604 | -70.59552 | 6460 ft | 257 kts | 4° |
| 2026-05-03 22:15 | 42.22364 | -70.59172 | 6183 ft | 256 kts | 4° |
| 2026-05-03 22:15 | 42.24122 | -70.58795 | 5893 ft | 255 kts | 4° |
| 2026-05-03 22:15 | 42.25872 | -70.58420 | 5617 ft | 255 kts | 4° |
| 2026-05-03 22:15 | 42.27610 | -70.58050 | 5399 ft | 248 kts | 4° |
| 2026-05-03 22:16 | 42.29268 | -70.57695 | 5313 ft | 235 kts | 3° |
| 2026-05-03 22:16 | 42.30835 | -70.57352 | 5244 ft | 220 kts | 4° |
| 2026-05-03 22:16 | 42.31820 | -70.57131 | 5164 ft | 214 kts | 4° |
| 2026-05-03 22:16 | 42.33272 | -70.56802 | 5067 ft | 210 kts | 3° |
| 2026-05-03 22:17 | 42.34715 | -70.56474 | 4916 ft | 210 kts | 3° |
| 2026-05-03 22:17 | 42.36149 | -70.56304 | 4684 ft | 203 kts | 350° |
| 2026-05-03 22:17 | 42.37506 | -70.56720 | 4461 ft | 199 kts | 338° |
| 2026-05-03 22:17 | 42.38810 | -70.57340 | 4282 ft | 198 kts | 336° |
| 2026-05-03 22:18 | 42.40034 | -70.58152 | 4098 ft | 195 kts | 324° |
| 2026-05-03 22:18 | 42.41106 | -70.59268 | 4000 ft | 194 kts | 313° |
| 2026-05-03 22:18 | 42.41865 | -70.60759 | 3989 ft | 194 kts | 295° |
| 2026-05-03 22:18 | 42.42197 | -70.62531 | 3991 ft | 198 kts | 277° |
| 2026-05-03 22:19 | 42.42041 | -70.64400 | 3993 ft | 203 kts | 262° |
| 2026-05-03 22:19 | 42.41716 | -70.66260 | 3990 ft | 203 kts | 262° |
| 2026-05-03 22:19 | 42.41393 | -70.68114 | 3992 ft | 202 kts | 262° |
| 2026-05-03 22:19 | 42.41071 | -70.69963 | 3997 ft | 202 kts | 262° |
| 2026-05-03 22:20 | 42.40749 | -70.71819 | 3988 ft | 203 kts | 262° |
| 2026-05-03 22:20 | 42.40431 | -70.73636 | 3807 ft | 194 kts | 262° |
| 2026-05-03 22:20 | 42.40124 | -70.75392 | 3572 ft | 189 kts | 262° |
| 2026-05-03 22:20 | 42.39830 | -70.77076 | 3322 ft | 184 kts | 262° |
| 2026-05-03 22:21 | 42.39536 | -70.78762 | 3105 ft | 181 kts | 263° |
| 2026-05-03 22:21 | 42.39251 | -70.80412 | 2810 ft | 179 kts | 262° |
| 2026-05-03 22:21 | 42.38971 | -70.82049 | 2545 ft | 178 kts | 263° |
| 2026-05-03 22:21 | 42.38693 | -70.83653 | 2324 ft | 176 kts | 263° |
| 2026-05-03 22:22 | 42.38401 | -70.85292 | 2114 ft | 178 kts | 262° |
| 2026-05-03 22:22 | 42.38114 | -70.86909 | 1877 ft | 176 kts | 263° |
| 2026-05-03 22:22 | 42.37835 | -70.88511 | 1641 ft | 175 kts | 262° |
| 2026-05-03 22:22 | 42.37561 | -70.90093 | 1401 ft | 174 kts | 261° |
| 2026-05-03 22:23 | 42.37302 | -70.91624 | 1258 ft | 158 kts | 262° |
| 2026-05-03 22:23 | 42.37049 | -70.92983 | 1037 ft | 142 kts | 262° |
| 2026-05-03 22:23 | 42.36822 | -70.94256 | 788 ft | 135 kts | 263° |
| 2026-05-03 22:23 | 42.36608 | -70.95479 | 584 ft | 133 kts | 262° |
| 2026-05-03 22:24 | 42.36394 | -70.96702 | 399 ft | 134 kts | 264° |
| 2026-05-03 22:24 | 42.36173 | -70.97945 | 211 ft | 135 kts | 261° |
| 2026-05-03 22:24 | 42.35958 | -70.99151 | 36 ft | 126 kts | 262° |
| 2026-05-03 22:24 | 42.35787 | -71.00157 | 28 ft | 88 kts | 256° |
| 2026-05-03 22:25 | 42.35690 | -71.00706 | 25 ft | 41 kts | 256° |
| 2026-05-03 22:25 | 42.35646 | -71.01055 | 30 ft | 32 kts | 275° |
| 2026-05-03 22:25 | 42.35710 | -71.01212 | 30 ft | 9 kts | 308° |
| 2026-05-03 22:25 | 42.35737 | -71.01291 | 28 ft | 12 kts | 291° |
| 2026-05-03 22:26 | 42.35774 | -71.01428 | 26 ft | 19 kts | 288° |
| 2026-05-03 22:26 | 42.35835 | -71.01555 | 26 ft | 15 kts | 338° |
| 2026-05-03 22:26 | 42.35928 | -71.01636 | 27 ft | 16 kts | 330° |
| 2026-05-03 22:26 | 42.35991 | -71.01703 | 29 ft | 1 kts | 317° |